sensor_id;sensor_type;location;lat;lon;timestamp;temperature;humidity
7077;DHT22;3579;48.956;9.154;2024-02-16T00:00:58;17.20;69.40
7077;DHT22;3579;48.956;9.154;2024-02-16T00:03:26;17.20;69.40
7077;DHT22;3579;48.956;9.154;2024-02-16T00:05:52;17.20;69.40
7077;DHT22;3579;48.956;9.154;2024-02-16T00:08:19;17.20;69.40
7077;DHT22;3579;48.956;9.154;2024-02-16T00:10:48;17.20;69.40
7077;DHT22;3579;48.956;9.154;2024-02-16T00:13:14;17.20;69.40
7077;DHT22;3579;48.956;9.154;2024-02-16T00:15:40;17.20;69.50
7077;DHT22;3579;48.956;9.154;2024-02-16T00:18:07;17.20;69.40
7077;DHT22;3579;48.956;9.154;2024-02-16T00:20:33;17.20;69.50
7077;DHT22;3579;48.956;9.154;2024-02-16T00:22:59;17.20;69.50
7077;DHT22;3579;48.956;9.154;2024-02-16T00:25:28;17.20;69.50
7077;DHT22;3579;48.956;9.154;2024-02-16T00:27:54;17.10;69.40
7077;DHT22;3579;48.956;9.154;2024-02-16T00:30:21;17.10;69.50
7077;DHT22;3579;48.956;9.154;2024-02-16T00:32:48;17.10;69.50
7077;DHT22;3579;48.956;9.154;2024-02-16T00:35:17;17.10;69.50
7077;DHT22;3579;48.956;9.154;2024-02-16T00:37:43;17.10;69.50
7077;DHT22;3579;48.956;9.154;2024-02-16T00:40:10;17.10;69.50
7077;DHT22;3579;48.956;9.154;2024-02-16T00:42:36;17.10;69.50
7077;DHT22;3579;48.956;9.154;2024-02-16T00:45:02;17.10;69.50
7077;DHT22;3579;48.956;9.154;2024-02-16T00:47:29;17.10;69.50
7077;DHT22;3579;48.956;9.154;2024-02-16T00:49:55;17.10;69.50
7077;DHT22;3579;48.956;9.154;2024-02-16T00:52:22;17.00;69.40
7077;DHT22;3579;48.956;9.154;2024-02-16T00:54:49;17.10;69.50
7077;DHT22;3579;48.956;9.154;2024-02-16T00:57:15;17.00;69.40
7077;DHT22;3579;48.956;9.154;2024-02-16T00:59:42;17.00;69.40
7077;DHT22;3579;48.956;9.154;2024-02-16T01:02:08;17.10;69.60
7077;DHT22;3579;48.956;9.154;2024-02-16T01:04:36;17.00;69.40
7077;DHT22;3579;48.956;9.154;2024-02-16T01:07:02;17.00;69.40
7077;DHT22;3579;48.956;9.154;2024-02-16T01:09:29;17.00;69.50
7077;DHT22;3579;48.956;9.154;2024-02-16T01:11:55;17.00;69.40
7077;DHT22;3579;48.956;9.154;2024-02-16T01:14:21;17.00;69.60
7077;DHT22;3579;48.956;9.154;2024-02-16T01:16:47;17.00;69.60
7077;DHT22;3579;48.956;9.154;2024-02-16T01:19:13;17.00;69.60
7077;DHT22;3579;48.956;9.154;2024-02-16T01:21:39;17.00;69.60
7077;DHT22;3579;48.956;9.154;2024-02-16T01:24:06;17.00;69.60
7077;DHT22;3579;48.956;9.154;2024-02-16T01:26:32;17.00;69.60
7077;DHT22;3579;48.956;9.154;2024-02-16T01:28:58;17.00;69.60
7077;DHT22;3579;48.956;9.154;2024-02-16T01:31:25;16.90;69.50
7077;DHT22;3579;48.956;9.154;2024-02-16T01:33:51;17.00;69.70
7077;DHT22;3579;48.956;9.154;2024-02-16T01:36:19;16.90;69.60
7077;DHT22;3579;48.956;9.154;2024-02-16T01:38:45;16.60;69.20
7077;DHT22;3579;48.956;9.154;2024-02-16T01:41:11;16.90;69.60
7077;DHT22;3579;48.956;9.154;2024-02-16T01:43:38;17.00;70.30
7077;DHT22;3579;48.956;9.154;2024-02-16T01:46:04;16.90;69.60
7077;DHT22;3579;48.956;9.154;2024-02-16T01:48:31;16.90;69.60
7077;DHT22;3579;48.956;9.154;2024-02-16T01:50:57;16.90;69.70
7077;DHT22;3579;48.956;9.154;2024-02-16T01:53:24;16.90;69.70
7077;DHT22;3579;48.956;9.154;2024-02-16T01:55:50;16.90;69.70
7077;DHT22;3579;48.956;9.154;2024-02-16T01:58:17;16.90;69.70
7077;DHT22;3579;48.956;9.154;2024-02-16T02:00:43;16.90;69.70
7077;DHT22;3579;48.956;9.154;2024-02-16T02:03:09;16.90;69.70
7077;DHT22;3579;48.956;9.154;2024-02-16T02:05:44;16.90;69.70
7077;DHT22;3579;48.956;9.154;2024-02-16T02:08:13;16.80;69.70
7077;DHT22;3579;48.956;9.154;2024-02-16T02:10:40;16.80;69.70
7077;DHT22;3579;48.956;9.154;2024-02-16T02:13:06;16.80;69.70
7077;DHT22;3579;48.956;9.154;2024-02-16T02:15:32;16.90;69.80
7077;DHT22;3579;48.956;9.154;2024-02-16T02:17:58;16.80;69.70
7077;DHT22;3579;48.956;9.154;2024-02-16T02:20:25;16.80;69.70
7077;DHT22;3579;48.956;9.154;2024-02-16T02:22:51;16.80;69.70
7077;DHT22;3579;48.956;9.154;2024-02-16T02:25:17;16.80;69.70
7077;DHT22;3579;48.956;9.154;2024-02-16T02:27:43;16.80;69.70
7077;DHT22;3579;48.956;9.154;2024-02-16T02:30:09;16.80;69.70
7077;DHT22;3579;48.956;9.154;2024-02-16T02:32:36;16.80;69.70
7077;DHT22;3579;48.956;9.154;2024-02-16T02:35:02;16.70;69.70
7077;DHT22;3579;48.956;9.154;2024-02-16T02:37:29;16.80;69.80
7077;DHT22;3579;48.956;9.154;2024-02-16T02:39:56;16.80;69.80
7077;DHT22;3579;48.956;9.154;2024-02-16T02:42:22;16.80;69.80
7077;DHT22;3579;48.956;9.154;2024-02-16T02:44:48;16.80;69.80
7077;DHT22;3579;48.956;9.154;2024-02-16T02:47:17;16.80;69.80
7077;DHT22;3579;48.956;9.154;2024-02-16T02:49:44;16.70;69.70
7077;DHT22;3579;48.956;9.154;2024-02-16T02:52:10;16.70;69.80
7077;DHT22;3579;48.956;9.154;2024-02-16T02:54:36;16.70;69.80
7077;DHT22;3579;48.956;9.154;2024-02-16T02:57:03;16.70;69.80
7077;DHT22;3579;48.956;9.154;2024-02-16T02:59:29;16.70;69.80
7077;DHT22;3579;48.956;9.154;2024-02-16T03:01:55;16.90;70.00
7077;DHT22;3579;48.956;9.154;2024-02-16T03:04:21;16.70;69.80
7077;DHT22;3579;48.956;9.154;2024-02-16T03:06:47;16.70;69.90
7077;DHT22;3579;48.956;9.154;2024-02-16T03:09:13;16.70;69.80
7077;DHT22;3579;48.956;9.154;2024-02-16T03:11:39;16.70;69.90
7077;DHT22;3579;48.956;9.154;2024-02-16T03:14:05;16.60;69.80
7077;DHT22;3579;48.956;9.154;2024-02-16T03:16:32;16.70;69.90
7077;DHT22;3579;48.956;9.154;2024-02-16T03:18:58;16.70;69.90
7077;DHT22;3579;48.956;9.154;2024-02-16T03:21:24;16.70;70.00
7077;DHT22;3579;48.956;9.154;2024-02-16T03:23:50;16.60;69.90
7077;DHT22;3579;48.956;9.154;2024-02-16T03:26:18;16.70;70.00
7077;DHT22;3579;48.956;9.154;2024-02-16T03:28:47;16.60;69.90
7077;DHT22;3579;48.956;9.154;2024-02-16T03:31:22;16.60;69.90
7077;DHT22;3579;48.956;9.154;2024-02-16T03:33:49;16.60;69.90
7077;DHT22;3579;48.956;9.154;2024-02-16T03:36:15;16.60;69.90
7077;DHT22;3579;48.956;9.154;2024-02-16T03:38:46;16.60;69.90
7077;DHT22;3579;48.956;9.154;2024-02-16T03:41:18;16.60;69.90
7077;DHT22;3579;48.956;9.154;2024-02-16T03:43:44;16.60;70.60
7077;DHT22;3579;48.956;9.154;2024-02-16T03:46:11;16.60;70.00
7077;DHT22;3579;48.956;9.154;2024-02-16T03:48:38;16.60;70.00
7077;DHT22;3579;48.956;9.154;2024-02-16T03:51:04;16.60;70.00
7077;DHT22;3579;48.956;9.154;2024-02-16T03:53:30;16.60;70.00
7077;DHT22;3579;48.956;9.154;2024-02-16T03:55:56;16.60;70.10
7077;DHT22;3579;48.956;9.154;2024-02-16T03:58:22;16.50;70.00
7077;DHT22;3579;48.956;9.154;2024-02-16T04:00:48;16.60;70.10
7077;DHT22;3579;48.956;9.154;2024-02-16T04:03:15;16.50;70.00
7077;DHT22;3579;48.956;9.154;2024-02-16T04:05:41;16.60;70.10
7077;DHT22;3579;48.956;9.154;2024-02-16T04:08:07;16.50;70.00
7077;DHT22;3579;48.956;9.154;2024-02-16T04:10:34;16.50;70.00
7077;DHT22;3579;48.956;9.154;2024-02-16T04:13:00;16.50;70.10
7077;DHT22;3579;48.956;9.154;2024-02-16T04:15:26;16.50;70.00
7077;DHT22;3579;48.956;9.154;2024-02-16T04:17:52;16.50;70.00
7077;DHT22;3579;48.956;9.154;2024-02-16T04:20:19;16.50;70.00
7077;DHT22;3579;48.956;9.154;2024-02-16T04:22:46;16.50;70.10
7077;DHT22;3579;48.956;9.154;2024-02-16T04:25:12;16.50;70.10
7077;DHT22;3579;48.956;9.154;2024-02-16T04:27:38;16.50;70.10
7077;DHT22;3579;48.956;9.154;2024-02-16T04:30:05;16.50;70.10
7077;DHT22;3579;48.956;9.154;2024-02-16T04:32:31;16.50;70.10
7077;DHT22;3579;48.956;9.154;2024-02-16T04:34:58;16.40;70.00
7077;DHT22;3579;48.956;9.154;2024-02-16T04:37:27;16.40;70.00
7077;DHT22;3579;48.956;9.154;2024-02-16T04:39:53;16.40;70.10
7077;DHT22;3579;48.956;9.154;2024-02-16T04:42:19;16.40;70.10
7077;DHT22;3579;48.956;9.154;2024-02-16T04:44:45;16.40;70.10
7077;DHT22;3579;48.956;9.154;2024-02-16T04:47:11;16.40;70.00
7077;DHT22;3579;48.956;9.154;2024-02-16T04:49:38;16.40;70.10
7077;DHT22;3579;48.956;9.154;2024-02-16T04:52:04;16.40;70.10
7077;DHT22;3579;48.956;9.154;2024-02-16T04:54:30;16.40;70.10
7077;DHT22;3579;48.956;9.154;2024-02-16T04:56:56;16.40;70.10
7077;DHT22;3579;48.956;9.154;2024-02-16T04:59:22;16.40;70.10
7077;DHT22;3579;48.956;9.154;2024-02-16T05:01:48;16.40;70.10
7077;DHT22;3579;48.956;9.154;2024-02-16T05:04:14;16.40;70.20
7077;DHT22;3579;48.956;9.154;2024-02-16T05:06:43;16.40;70.20
7077;DHT22;3579;48.956;9.154;2024-02-16T05:09:12;16.40;70.10
7077;DHT22;3579;48.956;9.154;2024-02-16T05:11:45;16.40;70.20
7077;DHT22;3579;48.956;9.154;2024-02-16T05:14:11;16.40;70.20
7077;DHT22;3579;48.956;9.154;2024-02-16T05:16:44;16.40;70.20
7077;DHT22;3579;48.956;9.154;2024-02-16T05:19:10;16.40;70.20
7077;DHT22;3579;48.956;9.154;2024-02-16T05:21:36;16.30;70.00
7077;DHT22;3579;48.956;9.154;2024-02-16T05:24:02;16.40;70.20
7077;DHT22;3579;48.956;9.154;2024-02-16T05:26:29;16.40;70.20
7077;DHT22;3579;48.956;9.154;2024-02-16T05:28:55;16.40;70.20
7077;DHT22;3579;48.956;9.154;2024-02-16T05:31:21;16.30;70.10
7077;DHT22;3579;48.956;9.154;2024-02-16T05:33:48;16.30;70.10
7077;DHT22;3579;48.956;9.154;2024-02-16T05:36:18;16.30;70.10
7077;DHT22;3579;48.956;9.154;2024-02-16T05:38:49;16.30;70.10
7077;DHT22;3579;48.956;9.154;2024-02-16T05:41:18;16.30;70.10
7077;DHT22;3579;48.956;9.154;2024-02-16T05:43:44;16.30;70.10
7077;DHT22;3579;48.956;9.154;2024-02-16T05:46:14;16.30;70.20
7077;DHT22;3579;48.956;9.154;2024-02-16T05:48:40;16.30;70.20
7077;DHT22;3579;48.956;9.154;2024-02-16T05:51:06;16.30;70.20
7077;DHT22;3579;48.956;9.154;2024-02-16T05:53:33;16.30;70.20
7077;DHT22;3579;48.956;9.154;2024-02-16T05:55:59;16.30;70.20
7077;DHT22;3579;48.956;9.154;2024-02-16T05:58:26;16.30;70.20
7077;DHT22;3579;48.956;9.154;2024-02-16T06:00:53;16.30;70.20
7077;DHT22;3579;48.956;9.154;2024-02-16T06:03:20;16.30;70.20
7077;DHT22;3579;48.956;9.154;2024-02-16T06:05:46;16.30;70.30
7077;DHT22;3579;48.956;9.154;2024-02-16T06:08:13;16.30;70.30
7077;DHT22;3579;48.956;9.154;2024-02-16T06:10:39;16.30;70.30
7077;DHT22;3579;48.956;9.154;2024-02-16T06:13:06;16.20;70.20
7077;DHT22;3579;48.956;9.154;2024-02-16T06:15:32;16.30;70.30
7077;DHT22;3579;48.956;9.154;2024-02-16T06:18:00;16.20;70.20
7077;DHT22;3579;48.956;9.154;2024-02-16T06:20:26;16.20;70.20
7077;DHT22;3579;48.956;9.154;2024-02-16T06:22:52;16.20;70.20
7077;DHT22;3579;48.956;9.154;2024-02-16T06:25:19;16.20;70.30
7077;DHT22;3579;48.956;9.154;2024-02-16T06:27:45;16.20;70.30
7077;DHT22;3579;48.956;9.154;2024-02-16T06:30:12;16.20;70.20
7077;DHT22;3579;48.956;9.154;2024-02-16T06:32:39;16.20;70.30
7077;DHT22;3579;48.956;9.154;2024-02-16T06:35:07;16.20;70.30
7077;DHT22;3579;48.956;9.154;2024-02-16T06:37:33;16.20;70.30
7077;DHT22;3579;48.956;9.154;2024-02-16T06:39:59;16.10;70.20
7077;DHT22;3579;48.956;9.154;2024-02-16T06:42:25;16.10;70.30
7077;DHT22;3579;48.956;9.154;2024-02-16T06:44:52;16.10;70.30
7077;DHT22;3579;48.956;9.154;2024-02-16T06:47:18;16.20;70.30
7077;DHT22;3579;48.956;9.154;2024-02-16T06:49:44;16.20;70.30
7077;DHT22;3579;48.956;9.154;2024-02-16T06:52:12;16.20;70.30
7077;DHT22;3579;48.956;9.154;2024-02-16T06:54:38;16.20;70.40
7077;DHT22;3579;48.956;9.154;2024-02-16T06:57:04;16.20;70.30
7077;DHT22;3579;48.956;9.154;2024-02-16T06:59:31;16.20;70.30
7077;DHT22;3579;48.956;9.154;2024-02-16T07:01:57;16.10;70.20
7077;DHT22;3579;48.956;9.154;2024-02-16T07:04:23;16.20;70.30
7077;DHT22;3579;48.956;9.154;2024-02-16T07:06:49;16.10;70.20
7077;DHT22;3579;48.956;9.154;2024-02-16T07:09:15;16.10;70.30
7077;DHT22;3579;48.956;9.154;2024-02-16T07:11:41;16.10;70.20
7077;DHT22;3579;48.956;9.154;2024-02-16T07:14:08;16.10;70.30
7077;DHT22;3579;48.956;9.154;2024-02-16T07:16:34;16.20;70.40
7077;DHT22;3579;48.956;9.154;2024-02-16T07:19:00;16.20;70.30
7077;DHT22;3579;48.956;9.154;2024-02-16T07:21:26;16.20;70.30
7077;DHT22;3579;48.956;9.154;2024-02-16T07:23:53;16.20;70.30
7077;DHT22;3579;48.956;9.154;2024-02-16T07:26:19;16.20;70.30
7077;DHT22;3579;48.956;9.154;2024-02-16T07:28:45;16.20;70.40
7077;DHT22;3579;48.956;9.154;2024-02-16T07:31:11;16.20;71.10
7077;DHT22;3579;48.956;9.154;2024-02-16T07:33:37;16.20;70.30
7077;DHT22;3579;48.956;9.154;2024-02-16T07:36:04;16.20;70.30
7077;DHT22;3579;48.956;9.154;2024-02-16T07:38:30;16.20;70.30
7077;DHT22;3579;48.956;9.154;2024-02-16T07:40:56;16.20;71.00
7077;DHT22;3579;48.956;9.154;2024-02-16T07:43:22;16.20;70.30
7077;DHT22;3579;48.956;9.154;2024-02-16T07:45:50;16.20;70.30
7077;DHT22;3579;48.956;9.154;2024-02-16T07:48:22;16.20;70.20
7077;DHT22;3579;48.956;9.154;2024-02-16T07:50:48;16.20;70.30
7077;DHT22;3579;48.956;9.154;2024-02-16T07:53:16;16.20;70.30
7077;DHT22;3579;48.956;9.154;2024-02-16T07:55:42;14.90;68.90
7077;DHT22;3579;48.956;9.154;2024-02-16T07:58:08;16.20;70.90
7077;DHT22;3579;48.956;9.154;2024-02-16T08:00:35;16.20;70.20
7077;DHT22;3579;48.956;9.154;2024-02-16T08:03:01;16.30;70.30
7077;DHT22;3579;48.956;9.154;2024-02-16T08:05:28;16.20;70.20
7077;DHT22;3579;48.956;9.154;2024-02-16T08:07:54;16.30;70.20
7077;DHT22;3579;48.956;9.154;2024-02-16T08:10:21;16.30;70.10
7077;DHT22;3579;48.956;9.154;2024-02-16T08:12:48;16.40;70.30
7077;DHT22;3579;48.956;9.154;2024-02-16T08:15:14;16.40;70.20
7077;DHT22;3579;48.956;9.154;2024-02-16T08:17:40;16.50;70.20
7077;DHT22;3579;48.956;9.154;2024-02-16T08:20:07;16.50;70.00
7077;DHT22;3579;48.956;9.154;2024-02-16T08:22:33;16.60;70.10
7077;DHT22;3579;48.956;9.154;2024-02-16T08:25:00;16.70;70.20
7077;DHT22;3579;48.956;9.154;2024-02-16T08:27:26;16.70;70.20
7077;DHT22;3579;48.956;9.154;2024-02-16T08:29:52;16.70;70.00
7077;DHT22;3579;48.956;9.154;2024-02-16T08:32:18;16.70;70.00
7077;DHT22;3579;48.956;9.154;2024-02-16T08:34:46;16.80;70.00
7077;DHT22;3579;48.956;9.154;2024-02-16T08:37:14;16.80;70.00
7077;DHT22;3579;48.956;9.154;2024-02-16T08:39:41;16.80;69.90
7077;DHT22;3579;48.956;9.154;2024-02-16T08:42:07;16.80;70.00
7077;DHT22;3579;48.956;9.154;2024-02-16T08:44:40;16.80;69.90
7077;DHT22;3579;48.956;9.154;2024-02-16T08:47:08;16.80;70.00
7077;DHT22;3579;48.956;9.154;2024-02-16T08:49:34;16.80;70.00
7077;DHT22;3579;48.956;9.154;2024-02-16T08:52:01;16.80;70.00
7077;DHT22;3579;48.956;9.154;2024-02-16T08:54:27;16.80;70.00
7077;DHT22;3579;48.956;9.154;2024-02-16T08:56:53;16.80;69.90
7077;DHT22;3579;48.956;9.154;2024-02-16T08:59:20;16.90;70.00
7077;DHT22;3579;48.956;9.154;2024-02-16T09:01:46;16.90;70.00
7077;DHT22;3579;48.956;9.154;2024-02-16T09:04:12;16.90;69.90
7077;DHT22;3579;48.956;9.154;2024-02-16T09:06:38;16.90;69.90
7077;DHT22;3579;48.956;9.154;2024-02-16T09:09:05;16.90;69.80
7077;DHT22;3579;48.956;9.154;2024-02-16T09:11:33;17.00;69.80
7077;DHT22;3579;48.956;9.154;2024-02-16T09:14:00;17.10;70.10
7077;DHT22;3579;48.956;9.154;2024-02-16T09:16:26;17.10;70.00
7077;DHT22;3579;48.956;9.154;2024-02-16T09:18:52;17.10;70.00
7077;DHT22;3579;48.956;9.154;2024-02-16T09:21:18;17.10;69.80
7077;DHT22;3579;48.956;9.154;2024-02-16T09:23:45;17.20;70.00
7077;DHT22;3579;48.956;9.154;2024-02-16T09:26:11;17.20;69.90
7077;DHT22;3579;48.956;9.154;2024-02-16T09:28:40;17.20;69.90
7077;DHT22;3579;48.956;9.154;2024-02-16T09:31:14;17.30;70.00
7077;DHT22;3579;48.956;9.154;2024-02-16T09:33:40;17.30;69.80
7077;DHT22;3579;48.956;9.154;2024-02-16T09:36:07;17.30;69.70
7077;DHT22;3579;48.956;9.154;2024-02-16T09:38:33;17.30;69.80
7077;DHT22;3579;48.956;9.154;2024-02-16T09:40:59;17.30;69.90
7077;DHT22;3579;48.956;9.154;2024-02-16T09:43:26;17.30;69.80
7077;DHT22;3579;48.956;9.154;2024-02-16T09:45:56;17.40;69.90
7077;DHT22;3579;48.956;9.154;2024-02-16T09:48:26;17.40;69.90
7077;DHT22;3579;48.956;9.154;2024-02-16T09:50:56;17.40;69.90
7077;DHT22;3579;48.956;9.154;2024-02-16T09:53:27;17.40;69.80
7077;DHT22;3579;48.956;9.154;2024-02-16T09:55:53;17.40;69.90
7077;DHT22;3579;48.956;9.154;2024-02-16T09:58:20;17.40;69.70
7077;DHT22;3579;48.956;9.154;2024-02-16T10:00:52;17.50;69.90
7077;DHT22;3579;48.956;9.154;2024-02-16T10:03:27;17.50;69.80
7077;DHT22;3579;48.956;9.154;2024-02-16T10:06:04;17.50;70.50
7077;DHT22;3579;48.956;9.154;2024-02-16T10:08:30;17.50;69.80
7077;DHT22;3579;48.956;9.154;2024-02-16T10:11:03;17.50;69.70
7077;DHT22;3579;48.956;9.154;2024-02-16T10:13:33;17.60;69.80
7077;DHT22;3579;48.956;9.154;2024-02-16T10:24:07;17.60;69.70
7077;DHT22;3579;48.956;9.154;2024-02-16T10:26:37;17.60;69.60
7077;DHT22;3579;48.956;9.154;2024-02-16T10:29:05;17.70;69.70
7077;DHT22;3579;48.956;9.154;2024-02-16T10:31:32;17.70;69.70
7077;DHT22;3579;48.956;9.154;2024-02-16T10:34:02;17.70;69.70
7077;DHT22;3579;48.956;9.154;2024-02-16T10:36:35;17.70;69.60
7077;DHT22;3579;48.956;9.154;2024-02-16T10:39:03;17.70;69.50
7077;DHT22;3579;48.956;9.154;2024-02-16T10:41:34;17.70;69.50
7077;DHT22;3579;48.956;9.154;2024-02-16T10:44:02;17.80;69.60
7077;DHT22;3579;48.956;9.154;2024-02-16T10:46:29;17.80;69.60
7077;DHT22;3579;48.956;9.154;2024-02-16T10:48:55;17.80;69.50
7077;DHT22;3579;48.956;9.154;2024-02-16T10:51:31;17.80;69.50
7077;DHT22;3579;48.956;9.154;2024-02-16T10:54:00;17.80;69.50
7077;DHT22;3579;48.956;9.154;2024-02-16T10:56:37;17.80;69.60
7077;DHT22;3579;48.956;9.154;2024-02-16T10:59:04;17.80;69.50
7077;DHT22;3579;48.956;9.154;2024-02-16T11:01:41;17.80;69.50
7077;DHT22;3579;48.956;9.154;2024-02-16T11:04:11;17.90;69.60
7077;DHT22;3579;48.956;9.154;2024-02-16T11:06:52;17.90;69.60
7077;DHT22;3579;48.956;9.154;2024-02-16T11:09:38;17.90;69.50
7077;DHT22;3579;48.956;9.154;2024-02-16T11:12:06;18.00;69.60
7077;DHT22;3579;48.956;9.154;2024-02-16T11:14:39;17.90;69.40
7077;DHT22;3579;48.956;9.154;2024-02-16T11:17:12;18.00;69.50
7077;DHT22;3579;48.956;9.154;2024-02-16T11:19:46;18.00;69.40
7077;DHT22;3579;48.956;9.154;2024-02-16T11:22:20;18.00;69.40
7077;DHT22;3579;48.956;9.154;2024-02-16T11:24:50;18.00;69.30
7077;DHT22;3579;48.956;9.154;2024-02-16T11:27:19;18.10;69.40
7077;DHT22;3579;48.956;9.154;2024-02-16T11:29:46;18.10;69.30
7077;DHT22;3579;48.956;9.154;2024-02-16T11:32:12;18.10;69.20
7077;DHT22;3579;48.956;9.154;2024-02-16T11:34:38;18.20;69.20
7077;DHT22;3579;48.956;9.154;2024-02-16T11:37:04;18.20;69.00
7077;DHT22;3579;48.956;9.154;2024-02-16T11:39:31;18.20;68.80
7077;DHT22;3579;48.956;9.154;2024-02-16T11:42:08;18.30;68.50
7077;DHT22;3579;48.956;9.154;2024-02-16T11:44:39;18.40;68.40
7077;DHT22;3579;48.956;9.154;2024-02-16T11:47:09;18.30;68.40
7077;DHT22;3579;48.956;9.154;2024-02-16T11:49:38;18.40;69.10
7077;DHT22;3579;48.956;9.154;2024-02-16T11:52:04;18.40;68.40
7077;DHT22;3579;48.956;9.154;2024-02-16T11:54:31;18.40;68.30
7077;DHT22;3579;48.956;9.154;2024-02-16T11:56:57;18.40;68.40
7077;DHT22;3579;48.956;9.154;2024-02-16T11:59:24;18.40;68.40
7077;DHT22;3579;48.956;9.154;2024-02-16T12:01:55;18.40;68.50
7077;DHT22;3579;48.956;9.154;2024-02-16T12:04:27;18.40;68.40
7077;DHT22;3579;48.956;9.154;2024-02-16T12:06:57;18.40;68.50
7077;DHT22;3579;48.956;9.154;2024-02-16T12:09:24;18.40;68.30
7077;DHT22;3579;48.956;9.154;2024-02-16T12:11:52;18.50;68.40
7077;DHT22;3579;48.956;9.154;2024-02-16T12:14:21;18.50;68.20
7077;DHT22;3579;48.956;9.154;2024-02-16T12:17:07;18.50;68.20
7077;DHT22;3579;48.956;9.154;2024-02-16T12:19:33;18.50;68.40
7077;DHT22;3579;48.956;9.154;2024-02-16T12:21:59;18.60;68.20
7077;DHT22;3579;48.956;9.154;2024-02-16T12:24:25;18.50;68.40
7077;DHT22;3579;48.956;9.154;2024-02-16T12:26:51;18.60;68.30
7077;DHT22;3579;48.956;9.154;2024-02-16T12:29:17;18.60;68.50
7077;DHT22;3579;48.956;9.154;2024-02-16T12:31:44;18.60;68.40
7077;DHT22;3579;48.956;9.154;2024-02-16T12:34:11;18.50;68.70
7077;DHT22;3579;48.956;9.154;2024-02-16T12:36:42;18.50;68.70
7077;DHT22;3579;48.956;9.154;2024-02-16T12:39:08;18.50;68.70
7077;DHT22;3579;48.956;9.154;2024-02-16T12:41:40;18.50;68.80
7077;DHT22;3579;48.956;9.154;2024-02-16T12:44:08;18.50;68.80
7077;DHT22;3579;48.956;9.154;2024-02-16T12:46:34;18.50;69.40
7077;DHT22;3579;48.956;9.154;2024-02-16T12:49:00;18.50;68.80
7077;DHT22;3579;48.956;9.154;2024-02-16T12:51:26;18.50;68.80
7077;DHT22;3579;48.956;9.154;2024-02-16T12:53:52;18.60;68.80
7077;DHT22;3579;48.956;9.154;2024-02-16T12:56:18;18.60;68.80
7077;DHT22;3579;48.956;9.154;2024-02-16T12:58:46;18.60;68.80
7077;DHT22;3579;48.956;9.154;2024-02-16T13:01:12;18.60;68.90
7077;DHT22;3579;48.956;9.154;2024-02-16T13:03:38;18.60;68.90
7077;DHT22;3579;48.956;9.154;2024-02-16T13:06:07;18.60;68.80
7077;DHT22;3579;48.956;9.154;2024-02-16T13:08:33;18.60;68.80
7077;DHT22;3579;48.956;9.154;2024-02-16T13:11:00;18.60;68.80
7077;DHT22;3579;48.956;9.154;2024-02-16T13:13:26;18.60;69.50
7077;DHT22;3579;48.956;9.154;2024-02-16T13:15:52;18.60;68.90
7077;DHT22;3579;48.956;9.154;2024-02-16T13:18:18;18.60;68.90
7077;DHT22;3579;48.956;9.154;2024-02-16T13:20:44;18.60;68.90
7077;DHT22;3579;48.956;9.154;2024-02-16T13:23:10;18.60;68.90
7077;DHT22;3579;48.956;9.154;2024-02-16T13:25:36;18.60;69.00
7077;DHT22;3579;48.956;9.154;2024-02-16T13:28:03;18.60;69.00
7077;DHT22;3579;48.956;9.154;2024-02-16T13:30:29;18.60;69.00
7077;DHT22;3579;48.956;9.154;2024-02-16T13:32:55;18.60;69.00
7077;DHT22;3579;48.956;9.154;2024-02-16T13:35:21;18.60;69.00
7077;DHT22;3579;48.956;9.154;2024-02-16T13:37:48;18.60;69.00
7077;DHT22;3579;48.956;9.154;2024-02-16T13:40:14;18.60;69.00
7077;DHT22;3579;48.956;9.154;2024-02-16T13:42:41;18.60;69.10
7077;DHT22;3579;48.956;9.154;2024-02-16T13:45:08;18.60;69.00
7077;DHT22;3579;48.956;9.154;2024-02-16T13:47:34;18.60;69.10
7077;DHT22;3579;48.956;9.154;2024-02-16T13:50:00;18.60;69.20
7077;DHT22;3579;48.956;9.154;2024-02-16T13:52:26;18.60;69.10
7077;DHT22;3579;48.956;9.154;2024-02-16T13:54:52;18.60;69.10
7077;DHT22;3579;48.956;9.154;2024-02-16T13:57:19;18.60;69.10
7077;DHT22;3579;48.956;9.154;2024-02-16T13:59:46;18.60;69.10
7077;DHT22;3579;48.956;9.154;2024-02-16T14:02:12;18.60;69.10
7077;DHT22;3579;48.956;9.154;2024-02-16T14:04:39;18.60;69.20
7077;DHT22;3579;48.956;9.154;2024-02-16T14:07:05;18.60;69.20
7077;DHT22;3579;48.956;9.154;2024-02-16T14:09:31;18.60;69.20
7077;DHT22;3579;48.956;9.154;2024-02-16T14:11:58;18.60;69.20
7077;DHT22;3579;48.956;9.154;2024-02-16T14:14:25;18.60;69.20
7077;DHT22;3579;48.956;9.154;2024-02-16T14:16:51;18.60;69.20
7077;DHT22;3579;48.956;9.154;2024-02-16T14:19:17;18.60;69.30
7077;DHT22;3579;48.956;9.154;2024-02-16T14:21:43;18.60;69.30
7077;DHT22;3579;48.956;9.154;2024-02-16T14:24:09;18.60;69.40
7077;DHT22;3579;48.956;9.154;2024-02-16T14:26:38;18.60;69.40
7077;DHT22;3579;48.956;9.154;2024-02-16T14:29:07;18.60;69.40
7077;DHT22;3579;48.956;9.154;2024-02-16T14:31:33;18.60;69.40
7077;DHT22;3579;48.956;9.154;2024-02-16T14:34:00;18.60;69.40
7077;DHT22;3579;48.956;9.154;2024-02-16T14:36:26;18.60;69.50
7077;DHT22;3579;48.956;9.154;2024-02-16T14:38:52;18.60;69.50
7077;DHT22;3579;48.956;9.154;2024-02-16T14:41:18;18.50;69.40
7077;DHT22;3579;48.956;9.154;2024-02-16T14:43:44;18.50;69.50
7077;DHT22;3579;48.956;9.154;2024-02-16T14:46:10;18.60;69.60
7077;DHT22;3579;48.956;9.154;2024-02-16T14:48:36;18.50;69.50
7077;DHT22;3579;48.956;9.154;2024-02-16T14:51:03;18.50;69.60
7077;DHT22;3579;48.956;9.154;2024-02-16T14:53:30;18.50;69.60
7077;DHT22;3579;48.956;9.154;2024-02-16T14:55:59;18.50;69.60
7077;DHT22;3579;48.956;9.154;2024-02-16T14:58:25;18.50;69.60
7077;DHT22;3579;48.956;9.154;2024-02-16T15:00:52;18.50;69.60
7077;DHT22;3579;48.956;9.154;2024-02-16T15:03:18;18.50;69.60
7077;DHT22;3579;48.956;9.154;2024-02-16T15:05:47;18.50;69.70
7077;DHT22;3579;48.956;9.154;2024-02-16T15:08:13;18.50;69.70
7077;DHT22;3579;48.956;9.154;2024-02-16T15:10:39;18.50;69.70
7077;DHT22;3579;48.956;9.154;2024-02-16T15:13:05;18.50;69.70
7077;DHT22;3579;48.956;9.154;2024-02-16T15:15:31;18.50;69.70
7077;DHT22;3579;48.956;9.154;2024-02-16T15:17:58;18.50;69.70
7077;DHT22;3579;48.956;9.154;2024-02-16T15:20:27;18.50;69.70
7077;DHT22;3579;48.956;9.154;2024-02-16T15:22:53;18.50;69.80
7077;DHT22;3579;48.956;9.154;2024-02-16T15:25:21;18.50;69.80
7077;DHT22;3579;48.956;9.154;2024-02-16T15:27:48;18.50;69.80
7077;DHT22;3579;48.956;9.154;2024-02-16T15:30:14;18.50;69.80
7077;DHT22;3579;48.956;9.154;2024-02-16T15:32:40;18.50;69.90
7077;DHT22;3579;48.956;9.154;2024-02-16T15:35:07;18.50;69.90
7077;DHT22;3579;48.956;9.154;2024-02-16T15:37:34;18.50;69.90
7077;DHT22;3579;48.956;9.154;2024-02-16T15:40:01;18.50;69.90
7077;DHT22;3579;48.956;9.154;2024-02-16T15:42:28;18.50;69.90
7077;DHT22;3579;48.956;9.154;2024-02-16T15:45:01;18.50;70.00
7077;DHT22;3579;48.956;9.154;2024-02-16T15:47:30;18.50;69.90
7077;DHT22;3579;48.956;9.154;2024-02-16T15:49:56;18.50;70.00
7077;DHT22;3579;48.956;9.154;2024-02-16T15:52:22;18.40;69.90
7077;DHT22;3579;48.956;9.154;2024-02-16T15:54:48;18.40;69.90
7077;DHT22;3579;48.956;9.154;2024-02-16T15:57:14;18.40;69.90
7077;DHT22;3579;48.956;9.154;2024-02-16T15:59:41;18.40;70.00
7077;DHT22;3579;48.956;9.154;2024-02-16T16:02:07;18.40;69.90
7077;DHT22;3579;48.956;9.154;2024-02-16T16:04:33;18.40;70.00
7077;DHT22;3579;48.956;9.154;2024-02-16T16:07:00;18.40;70.00
7077;DHT22;3579;48.956;9.154;2024-02-16T16:09:26;18.40;70.00